Weather reports worldwide

Advertisment
Viterbo, Italy (16218): temperature & dewpoint: 16.01.2019 04:00:00 - 22.01.2019 04:00:00 (CET)Viterbo, Italy (16218): wind speed: 16.01.2019 04:00:00 - 22.01.2019 04:00:00 (CET)Viterbo, Italy (16218): wind direction: 16.01.2019 04:00:00 - 22.01.2019 04:00:00 (CET)Viterbo, Italy (16218): precipitation: 16.01.2019 04:00:00 - 22.01.2019 04:00:00 (CET)
Date & Time tt [°C] td [°C] ff [km/h] ff [kn] dd rr [mm]
22.01.2019 04:00:00 - - - - - -
22.01.2019 03:00:00 - - - - - -
22.01.2019 02:00:00 - - - - - -
22.01.2019 01:00:00 - - - - - -
22.01.2019 00:00:00 - - - - - -
21.01.2019 23:00:00 - - - - - -
21.01.2019 22:00:00 - - - - - -
21.01.2019 21:00:00 - - - - - -
21.01.2019 20:00:00 - - - - - -
21.01.2019 19:00:00 - - - - - -
21.01.2019 18:00:00 - - - - - -
21.01.2019 17:00:00 - - - - - -
21.01.2019 16:00:00 - - - - - -
21.01.2019 15:00:00 - - - - - -
21.01.2019 14:00:00 - - - - - -
21.01.2019 13:00:00 - - - - - -
21.01.2019 12:00:00 - - - - - -
21.01.2019 11:00:00 - - - - - -
21.01.2019 10:00:00 - - - - - -
21.01.2019 09:00:00 - - - - - -
21.01.2019 08:00:00 - - - - - -
21.01.2019 07:00:00 - - - - - -
21.01.2019 06:00:00 - - - - - -
21.01.2019 05:00:00 - - - - - -
21.01.2019 04:00:00 - - - - - -
21.01.2019 03:00:00 0,5 -1,3 21 11 NNE -
21.01.2019 02:00:00 - - - - - -
21.01.2019 01:00:00 1,0 -0,8 16 9 NNE -
21.01.2019 00:00:00 1,1 -0,5 16 9 NNE -
20.01.2019 23:00:00 1,3 -0,3 16 9 NNE -
20.01.2019 22:00:00 1,5 0,0 15 8 NE -
20.01.2019 21:00:00 1,7 0,2 15 8 NE -
20.01.2019 20:00:00 2,0 0,5 11 6 NE -
20.01.2019 19:00:00 2,2 0,7 15 8 NE -
20.01.2019 18:00:00 2,5 1,0 16 9 NE -
20.01.2019 17:00:00 2,8 1,3 13 7 NE -
20.01.2019 16:00:00 3,1 1,6 16 9 NE -
20.01.2019 15:00:00 - - - - - -
20.01.2019 14:00:00 - - - - - -
20.01.2019 13:00:00 3,0 1,3 16 9 NE -
20.01.2019 12:00:00 - - - - - -
20.01.2019 11:00:00 - - - - - -
20.01.2019 10:00:00 1,5 0,5 13 7 NE -
20.01.2019 09:00:00 - - - - - -
20.01.2019 08:00:00 1,2 0,0 13 7 NE -
20.01.2019 07:00:00 1,3 0,1 15 8 NE -
20.01.2019 06:00:00 1,3 0,3 15 8 NE -
20.01.2019 05:00:00 1,5 0,5 13 7 NE -
20.01.2019 04:00:00 1,6 0,7 15 8 NE -
20.01.2019 03:00:00 1,6 0,7 15 8 NE -
20.01.2019 02:00:00 1,8 0,9 13 7 NE -
20.01.2019 01:00:00 2,1 1,4 15 8 NE -
20.01.2019 00:00:00 2,2 1,5 13 7 NE -
19.01.2019 23:00:00 2,4 1,7 11 6 NE -
19.01.2019 22:00:00 2,5 1,8 11 6 NE -
19.01.2019 21:00:00 2,6 1,7 9 5 NNE -
19.01.2019 20:00:00 2,7 1,8 9 5 NE -
19.01.2019 19:00:00 2,8 1,8 11 6 NE -
19.01.2019 18:00:00 - 2,0 5 3 NNE -
19.01.2019 17:00:00 3,2 2,0 11 6 NE -
19.01.2019 16:00:00 - - - - - -
19.01.2019 15:00:00 - - - - - -
19.01.2019 14:00:00 - - - - - -
19.01.2019 13:00:00 3,5 2,6 0 0 N 40,0
19.01.2019 12:00:00 3,0 2,3 8 4 NNE -
19.01.2019 11:00:00 - - - - - -
19.01.2019 10:00:00 - - - - - -
19.01.2019 09:00:00 - - - - - -
19.01.2019 08:00:00 - - - - - -
19.01.2019 07:00:00 - 15,0 8 4 NNE -
19.01.2019 06:00:00 - - - - - -
19.01.2019 05:00:00 - - - - - -
19.01.2019 04:00:00 0,2 -1,3 8 4 NNE -
19.01.2019 03:00:00 - - - - - -
19.01.2019 02:00:00 - - - - - -
19.01.2019 01:00:00 0,5 -1,1 0 0 N 0,0
19.01.2019 00:00:00 - - - - - -
18.01.2019 23:00:00 0,5 -1,3 2 1 NNE -
18.01.2019 22:00:00 0,0 -1,9 0 0 N -
18.01.2019 21:00:00 0,7 -1,6 0 0 N -
18.01.2019 20:00:00 1,6 -0,8 0 0 N -
18.01.2019 19:00:00 2,9 0,4 0 0 N 0,0
18.01.2019 18:00:00 3,8 1,1 0 0 N 0,0
18.01.2019 17:00:00 3,7 1,4 0 0 N 0,0
18.01.2019 16:00:00 4,3 1,6 0 0 N -
18.01.2019 15:00:00 6,8 1,6 8 4 WSW 0,0
18.01.2019 14:00:00 6,8 0,8 0 0 N 0,0
18.01.2019 13:00:00 6,7 0,1 0 0 N 0,0
18.01.2019 12:00:00 5,2 2,0 0 0 N 0,0
18.01.2019 11:00:00 - 4,3 157 85 N 0,0
18.01.2019 10:00:00 - 4,3 9 5 NNE -
18.01.2019 09:00:00 - 4,3 157 85 N 0,0
18.01.2019 08:00:00 0,0 -1,5 4 2 NNE 0,0
18.01.2019 07:00:00 -0,1 -1,7 157 85 N 0,0
18.01.2019 06:00:00 0,3 -1,3 5 3 NNE 0,0
18.01.2019 05:00:00 - 4,3 157 85 N 0,0
18.01.2019 04:00:00 0,0 -2,3 5 3 N -
18.01.2019 03:00:00 0,0 -2,7 0 0 N 0,0
18.01.2019 02:00:00 1,1 -1,8 0 0 N 0,0
18.01.2019 01:00:00 1,1 -1,3 0 0 N 0,0
18.01.2019 00:00:00 0,2 -2,1 0 0 N 0,0
17.01.2019 23:00:00 -0,4 -3,5 0 0 N 0,0
17.01.2019 22:00:00 2,0 -2,0 157 85 N -
17.01.2019 21:00:00 2,5 -1,4 0 0 N 0,0
17.01.2019 20:00:00 2,7 -1,2 11 6 SSE 0,0
17.01.2019 19:00:00 - 4,3 157 85 N -
17.01.2019 18:00:00 4,3 0,0 11 6 SSE 0,0
17.01.2019 17:00:00 - 4,3 157 85 N 0,0
17.01.2019 16:00:00 0,4 -1,1 144 78 N -
17.01.2019 15:00:00 - 4,3 157 85 N 0,0
17.01.2019 14:00:00 - 4,3 157 85 N 0,0
17.01.2019 13:00:00 8,5 4,3 157 85 N -
17.01.2019 12:00:00 - - - - - -
17.01.2019 11:00:00 - - - - - -
17.01.2019 10:00:00 15,1 -1,1 18 10 S -
17.01.2019 09:00:00 - - - - - -
17.01.2019 08:00:00 - - - - - -
17.01.2019 07:00:00 - - - - - -
17.01.2019 06:00:00 - - - - - -
17.01.2019 05:00:00 - - - - - -
17.01.2019 04:00:00 - - - - - -
17.01.2019 03:00:00 6,1 - 15 8 S -
17.01.2019 02:00:00 6,3 5,7 16 9 - -
17.01.2019 01:00:00 6,4 5,6 13 7 S -
17.01.2019 00:00:00 - - - - - -
16.01.2019 23:00:00 5,7 4,6 13 7 S -
16.01.2019 22:00:00 4,4 2,9 9 5 SSE -
16.01.2019 21:00:00 5,1 4,0 5 3 SSE -
16.01.2019 20:00:00 4,9 3,5 8 4 S -
16.01.2019 19:00:00 6,0 5,2 11 6 SSE -
16.01.2019 18:00:00 6,0 5,1 2 1 WSW -
16.01.2019 17:00:00 5,8 4,4 0 0 N -
16.01.2019 16:00:00 6,2 4,3 11 6 W -
16.01.2019 15:00:00 - - - - - -
16.01.2019 14:00:00 8,9 4,5 28 15 S -
16.01.2019 13:00:00 - - - - - -
16.01.2019 12:00:00 7,7 4,1 26 14 SSE -
16.01.2019 11:00:00 - - - - - -
16.01.2019 10:00:00 - - - - - -
16.01.2019 09:00:00 - 2,0 2 1 SE -
16.01.2019 08:00:00 4,6 1,0 9 5 ESE -
16.01.2019 07:00:00 2,8 -0,9 0 0 N 0,0
16.01.2019 06:00:00 1,8 -2,2 0 0 N -
16.01.2019 05:00:00 1,9 -1,6 0 0 N -
16.01.2019 04:00:00 2,5 -1,0 8 4 ESE -

tt = temperature
td = dewpoint
ff = wind speed
dd = wind direction
rr = precipitation

Next stations